sensor_id;sensor_type;location;lat;lon;timestamp;temperature;humidity
11549;DHT22;61444;59.472;18.306;2023-07-13T14:36:23;23.00;89.90
11549;DHT22;61444;59.472;18.306;2023-07-13T14:38:35;23.20;84.80
11549;DHT22;61444;59.472;18.306;2023-07-13T14:40:44;23.00;86.40
11549;DHT22;61444;59.472;18.306;2023-07-13T14:42:52;22.60;84.70
11549;DHT22;61444;59.472;18.306;2023-07-13T14:45:01;23.00;86.70
11549;DHT22;61444;59.472;18.306;2023-07-13T14:47:11;23.30;85.20
11549;DHT22;61444;59.472;18.306;2023-07-13T14:49:24;23.70;86.80
11549;DHT22;61444;59.472;18.306;2023-07-13T14:51:37;23.70;84.30
11549;DHT22;61444;59.472;18.306;2023-07-13T14:53:51;23.20;87.10
11549;DHT22;61444;59.472;18.306;2023-07-13T14:56:00;22.50;83.80
11549;DHT22;61444;59.472;18.306;2023-07-13T14:58:09;22.40;84.30
11549;DHT22;61444;59.472;18.306;2023-07-13T15:00:21;21.70;85.90
11549;DHT22;61444;59.472;18.306;2023-07-13T15:02:34;21.60;89.10
11549;DHT22;61444;59.472;18.306;2023-07-13T15:04:44;21.60;87.80
11549;DHT22;61444;59.472;18.306;2023-07-13T15:06:55;21.50;87.40
11549;DHT22;61444;59.472;18.306;2023-07-13T15:09:08;21.40;88.40
11549;DHT22;61444;59.472;18.306;2023-07-13T15:11:19;21.40;90.00
11549;DHT22;61444;59.472;18.306;2023-07-13T15:13:29;21.50;90.10
11549;DHT22;61444;59.472;18.306;2023-07-13T15:17:48;21.20;88.20
11549;DHT22;61444;59.472;18.306;2023-07-13T15:20:19;21.30;90.60
11549;DHT22;61444;59.472;18.306;2023-07-13T15:22:28;21.20;88.00
11549;DHT22;61444;59.472;18.306;2023-07-13T15:24:40;21.10;89.20
11549;DHT22;61444;59.472;18.306;2023-07-13T15:26:50;21.10;88.50
11549;DHT22;61444;59.472;18.306;2023-07-13T15:29:03;21.20;90.50
11549;DHT22;61444;59.472;18.306;2023-07-13T15:31:20;21.20;90.30
11549;DHT22;61444;59.472;18.306;2023-07-13T15:33:30;21.20;90.80
11549;DHT22;61444;59.472;18.306;2023-07-13T15:35:43;21.20;90.40
11549;DHT22;61444;59.472;18.306;2023-07-13T15:37:54;21.10;89.00
11549;DHT22;61444;59.472;18.306;2023-07-13T15:40:06;21.00;89.40
11549;DHT22;61444;59.472;18.306;2023-07-13T15:42:16;21.00;90.50
11549;DHT22;61444;59.472;18.306;2023-07-13T15:46:37;20.90;91.50
11549;DHT22;61444;59.472;18.306;2023-07-13T15:48:47;21.20;90.70
11549;DHT22;61444;59.472;18.306;2023-07-13T15:51:03;21.70;91.60
11549;DHT22;61444;59.472;18.306;2023-07-13T15:53:21;21.80;92.90
11549;DHT22;61444;59.472;18.306;2023-07-13T15:55:33;21.60;91.30
11549;DHT22;61444;59.472;18.306;2023-07-13T15:57:46;21.40;92.50
11549;DHT22;61444;59.472;18.306;2023-07-13T15:59:55;21.10;91.50
11549;DHT22;61444;59.472;18.306;2023-07-13T16:02:12;21.00;92.40
11549;DHT22;61444;59.472;18.306;2023-07-13T16:04:21;21.00;92.50
11549;DHT22;61444;59.472;18.306;2023-07-13T16:06:33;21.00;92.60
11549;DHT22;61444;59.472;18.306;2023-07-13T16:08:43;21.00;93.80
11549;DHT22;61444;59.472;18.306;2023-07-13T16:15:16;20.80;93.10
11549;DHT22;61444;59.472;18.306;2023-07-13T16:17:25;20.90;94.40
11549;DHT22;61444;59.472;18.306;2023-07-13T16:19:35;21.00;95.30
11549;DHT22;61444;59.472;18.306;2023-07-13T16:21:45;21.00;95.50
11549;DHT22;61444;59.472;18.306;2023-07-13T16:23:56;21.10;95.10
11549;DHT22;61444;59.472;18.306;2023-07-13T16:26:28;21.10;94.50
11549;DHT22;61444;59.472;18.306;2023-07-13T16:28:46;21.20;95.50
11549;DHT22;61444;59.472;18.306;2023-07-13T16:30:55;21.20;95.40
11549;DHT22;61444;59.472;18.306;2023-07-13T16:33:05;21.20;95.10
11549;DHT22;61444;59.472;18.306;2023-07-13T16:35:14;21.20;96.00
11549;DHT22;61444;59.472;18.306;2023-07-13T16:37:27;20.90;96.00
11549;DHT22;61444;59.472;18.306;2023-07-13T16:39:38;20.70;96.50
11549;DHT22;61444;59.472;18.306;2023-07-13T16:41:49;20.70;96.90
11549;DHT22;61444;59.472;18.306;2023-07-13T16:43:58;21.10;96.70
11549;DHT22;61444;59.472;18.306;2023-07-13T16:46:11;21.30;95.60
11549;DHT22;61444;59.472;18.306;2023-07-13T16:48:23;21.00;95.70
11549;DHT22;61444;59.472;18.306;2023-07-13T16:50:33;20.90;96.10
11549;DHT22;61444;59.472;18.306;2023-07-13T16:52:42;20.70;96.20
11549;DHT22;61444;59.472;18.306;2023-07-13T16:54:51;20.70;97.00
11549;DHT22;61444;59.472;18.306;2023-07-13T16:57:03;20.60;97.20
11549;DHT22;61444;59.472;18.306;2023-07-13T16:59:15;20.50;97.40
11549;DHT22;61444;59.472;18.306;2023-07-13T17:01:24;20.50;97.40
11549;DHT22;61444;59.472;18.306;2023-07-13T17:03:34;20.60;97.20
11549;DHT22;61444;59.472;18.306;2023-07-13T17:05:44;20.60;97.70
11549;DHT22;61444;59.472;18.306;2023-07-13T17:07:56;20.50;96.90
11549;DHT22;61444;59.472;18.306;2023-07-13T17:10:06;20.60;97.80
11549;DHT22;61444;59.472;18.306;2023-07-13T17:12:16;20.60;98.40
11549;DHT22;61444;59.472;18.306;2023-07-13T17:14:26;20.50;98.40
11549;DHT22;61444;59.472;18.306;2023-07-13T17:16:37;20.50;97.60
11549;DHT22;61444;59.472;18.306;2023-07-13T17:18:47;20.50;97.50
11549;DHT22;61444;59.472;18.306;2023-07-13T17:20:56;20.90;97.90
11549;DHT22;61444;59.472;18.306;2023-07-13T17:23:11;21.00;96.90
11549;DHT22;61444;59.472;18.306;2023-07-13T17:25:23;20.80;96.90
11549;DHT22;61444;59.472;18.306;2023-07-13T17:27:34;20.70;97.40
11549;DHT22;61444;59.472;18.306;2023-07-13T17:29:43;20.60;97.30
11549;DHT22;61444;59.472;18.306;2023-07-13T17:31:52;20.70;97.10
11549;DHT22;61444;59.472;18.306;2023-07-13T17:34:02;22.20;95.60
11549;DHT22;61444;59.472;18.306;2023-07-13T17:36:13;22.40;95.40
11549;DHT22;61444;59.472;18.306;2023-07-13T17:38:30;23.20;93.70
11549;DHT22;61444;59.472;18.306;2023-07-13T17:40:38;23.80;91.00
11549;DHT22;61444;59.472;18.306;2023-07-13T17:42:49;24.50;91.30
11549;DHT22;61444;59.472;18.306;2023-07-13T17:45:02;25.30;88.50
11549;DHT22;61444;59.472;18.306;2023-07-13T17:53:50;26.60;79.60
11549;DHT22;61444;59.472;18.306;2023-07-13T17:55:58;26.10;80.00
11549;DHT22;61444;59.472;18.306;2023-07-13T17:58:08;26.40;81.70
11549;DHT22;61444;59.472;18.306;2023-07-13T18:00:18;27.30;80.40
11549;DHT22;61444;59.472;18.306;2023-07-13T18:02:39;27.50;78.60
11549;DHT22;61444;59.472;18.306;2023-07-13T18:04:50;28.00;78.50
11549;DHT22;61444;59.472;18.306;2023-07-13T18:06:58;27.80;77.60
11549;DHT22;61444;59.472;18.306;2023-07-13T18:09:17;26.60;80.50
11549;DHT22;61444;59.472;18.306;2023-07-13T18:11:27;26.60;80.40
11549;DHT22;61444;59.472;18.306;2023-07-13T18:13:38;26.90;80.10
11549;DHT22;61444;59.472;18.306;2023-07-13T18:15:47;26.30;81.20
11549;DHT22;61444;59.472;18.306;2023-07-13T18:17:59;26.20;83.10
11549;DHT22;61444;59.472;18.306;2023-07-13T18:20:15;26.20;82.50
11549;DHT22;61444;59.472;18.306;2023-07-13T18:22:24;26.10;81.90
11549;DHT22;61444;59.472;18.306;2023-07-13T18:24:33;26.00;81.30
11549;DHT22;61444;59.472;18.306;2023-07-13T18:26:44;25.20;82.00
11549;DHT22;61444;59.472;18.306;2023-07-13T18:28:54;23.70;87.60
11549;DHT22;61444;59.472;18.306;2023-07-13T18:31:03;23.60;88.20
11549;DHT22;61444;59.472;18.306;2023-07-13T18:33:18;23.30;88.20
11549;DHT22;61444;59.472;18.306;2023-07-13T18:35:29;22.80;89.50
11549;DHT22;61444;59.472;18.306;2023-07-13T18:37:38;22.60;90.40
11549;DHT22;61444;59.472;18.306;2023-07-13T18:39:45;22.30;91.00
11549;DHT22;61444;59.472;18.306;2023-07-13T18:41:54;22.00;91.70
11549;DHT22;61444;59.472;18.306;2023-07-13T18:44:06;21.60;92.10
11549;DHT22;61444;59.472;18.306;2023-07-13T18:46:19;21.50;92.10
11549;DHT22;61444;59.472;18.306;2023-07-13T18:48:32;21.40;92.50
11549;DHT22;61444;59.472;18.306;2023-07-13T18:50:41;21.30;93.20
11549;DHT22;61444;59.472;18.306;2023-07-13T18:52:50;21.30;93.60
11549;DHT22;61444;59.472;18.306;2023-07-13T18:54:59;21.10;94.10
11549;DHT22;61444;59.472;18.306;2023-07-13T18:57:07;21.00;94.60
11549;DHT22;61444;59.472;18.306;2023-07-13T18:59:18;20.80;94.70
11549;DHT22;61444;59.472;18.306;2023-07-13T19:01:31;20.70;95.30
11549;DHT22;61444;59.472;18.306;2023-07-13T19:03:42;20.70;95.30
11549;DHT22;61444;59.472;18.306;2023-07-13T19:05:51;20.60;95.70
11549;DHT22;61444;59.472;18.306;2023-07-13T19:08:11;20.50;95.80
11549;DHT22;61444;59.472;18.306;2023-07-13T19:10:23;20.40;96.00
11549;DHT22;61444;59.472;18.306;2023-07-13T19:12:32;20.30;96.40
11549;DHT22;61444;59.472;18.306;2023-07-13T19:14:44;20.20;96.20
11549;DHT22;61444;59.472;18.306;2023-07-13T19:16:59;20.10;97.20
11549;DHT22;61444;59.472;18.306;2023-07-13T19:19:11;20.00;97.70
11549;DHT22;61444;59.472;18.306;2023-07-13T19:21:30;19.90;98.00
11549;DHT22;61444;59.472;18.306;2023-07-13T19:23:43;19.80;98.10
11549;DHT22;61444;59.472;18.306;2023-07-13T19:25:53;19.80;98.60
11549;DHT22;61444;59.472;18.306;2023-07-13T19:28:26;19.60;98.30
11549;DHT22;61444;59.472;18.306;2023-07-13T19:30:38;19.60;98.50
11549;DHT22;61444;59.472;18.306;2023-07-13T19:32:46;19.60;99.10
11549;DHT22;61444;59.472;18.306;2023-07-13T19:34:55;19.40;98.80
11549;DHT22;61444;59.472;18.306;2023-07-13T19:37:18;19.40;99.10
11549;DHT22;61444;59.472;18.306;2023-07-13T19:39:33;19.40;99.10
11549;DHT22;61444;59.472;18.306;2023-07-13T19:41:46;19.30;99.50
11549;DHT22;61444;59.472;18.306;2023-07-13T19:43:54;19.20;98.70
11549;DHT22;61444;59.472;18.306;2023-07-13T19:46:05;19.10;99.30
11549;DHT22;61444;59.472;18.306;2023-07-13T19:48:14;19.00;99.90
11549;DHT22;61444;59.472;18.306;2023-07-13T19:50:22;19.00;99.90
11549;DHT22;61444;59.472;18.306;2023-07-13T19:52:31;18.90;99.90
11549;DHT22;61444;59.472;18.306;2023-07-13T19:54:40;18.80;99.90
11549;DHT22;61444;59.472;18.306;2023-07-13T19:56:48;18.70;99.90
11549;DHT22;61444;59.472;18.306;2023-07-13T19:58:58;18.70;99.90
11549;DHT22;61444;59.472;18.306;2023-07-13T20:01:09;18.60;99.90
11549;DHT22;61444;59.472;18.306;2023-07-13T20:03:18;18.60;99.90
11549;DHT22;61444;59.472;18.306;2023-07-13T20:05:27;18.50;99.90
11549;DHT22;61444;59.472;18.306;2023-07-13T20:07:37;18.40;99.90
11549;DHT22;61444;59.472;18.306;2023-07-13T20:09:46;18.40;99.90
11549;DHT22;61444;59.472;18.306;2023-07-13T20:11:56;18.40;99.90
11549;DHT22;61444;59.472;18.306;2023-07-13T20:14:16;18.30;99.90
11549;DHT22;61444;59.472;18.306;2023-07-13T20:16:26;18.20;99.90
11549;DHT22;61444;59.472;18.306;2023-07-13T20:18:35;18.20;99.90
11549;DHT22;61444;59.472;18.306;2023-07-13T20:20:44;18.10;99.90
11549;DHT22;61444;59.472;18.306;2023-07-13T20:22:54;18.10;99.90
11549;DHT22;61444;59.472;18.306;2023-07-13T20:25:13;18.00;99.90
11549;DHT22;61444;59.472;18.306;2023-07-13T20:27:24;17.90;99.90
11549;DHT22;61444;59.472;18.306;2023-07-13T20:29:33;17.80;99.90
11549;DHT22;61444;59.472;18.306;2023-07-13T20:31:45;17.80;99.90
11549;DHT22;61444;59.472;18.306;2023-07-13T20:33:55;17.70;99.90
11549;DHT22;61444;59.472;18.306;2023-07-13T20:36:05;17.70;99.90
11549;DHT22;61444;59.472;18.306;2023-07-13T20:38:15;17.60;99.90
11549;DHT22;61444;59.472;18.306;2023-07-13T20:40:29;17.60;99.90
11549;DHT22;61444;59.472;18.306;2023-07-13T20:42:38;17.50;99.90
11549;DHT22;61444;59.472;18.306;2023-07-13T20:44:47;17.40;99.90
11549;DHT22;61444;59.472;18.306;2023-07-13T20:46:57;17.30;99.90
11549;DHT22;61444;59.472;18.306;2023-07-13T20:49:09;17.20;99.90
11549;DHT22;61444;59.472;18.306;2023-07-13T20:51:21;17.20;99.90
11549;DHT22;61444;59.472;18.306;2023-07-13T20:53:31;17.10;99.90
11549;DHT22;61444;59.472;18.306;2023-07-13T20:55:39;17.00;99.90
11549;DHT22;61444;59.472;18.306;2023-07-13T20:57:48;16.90;99.90
11549;DHT22;61444;59.472;18.306;2023-07-13T20:59:56;16.80;99.90
11549;DHT22;61444;59.472;18.306;2023-07-13T21:02:25;16.80;99.90
11549;DHT22;61444;59.472;18.306;2023-07-13T21:04:37;16.70;99.90
11549;DHT22;61444;59.472;18.306;2023-07-13T21:06:46;16.70;99.90
11549;DHT22;61444;59.472;18.306;2023-07-13T21:08:55;16.70;99.90
11549;DHT22;61444;59.472;18.306;2023-07-13T21:11:03;16.70;99.90
11549;DHT22;61444;59.472;18.306;2023-07-13T21:13:16;16.60;99.90
11549;DHT22;61444;59.472;18.306;2023-07-13T21:15:29;16.50;99.90
11549;DHT22;61444;59.472;18.306;2023-07-13T21:17:40;16.50;99.90
11549;DHT22;61444;59.472;18.306;2023-07-13T21:19:48;16.50;99.90
11549;DHT22;61444;59.472;18.306;2023-07-13T21:21:57;16.50;99.90
11549;DHT22;61444;59.472;18.306;2023-07-13T21:24:07;16.50;99.90
11549;DHT22;61444;59.472;18.306;2023-07-13T21:26:18;16.50;99.90
11549;DHT22;61444;59.472;18.306;2023-07-13T21:28:28;16.40;99.90
11549;DHT22;61444;59.472;18.306;2023-07-13T21:30:40;16.30;99.90
11549;DHT22;61444;59.472;18.306;2023-07-13T21:32:52;16.30;99.90
11549;DHT22;61444;59.472;18.306;2023-07-13T21:35:05;16.30;99.90
11549;DHT22;61444;59.472;18.306;2023-07-13T21:37:16;16.30;99.90
11549;DHT22;61444;59.472;18.306;2023-07-13T21:39:26;16.30;99.90
11549;DHT22;61444;59.472;18.306;2023-07-13T21:41:36;16.20;99.90
11549;DHT22;61444;59.472;18.306;2023-07-13T21:43:46;16.30;99.90
11549;DHT22;61444;59.472;18.306;2023-07-13T21:45:55;16.20;99.90
11549;DHT22;61444;59.472;18.306;2023-07-13T21:48:07;16.30;99.90
11549;DHT22;61444;59.472;18.306;2023-07-13T21:50:18;16.30;99.90
11549;DHT22;61444;59.472;18.306;2023-07-13T21:52:28;16.20;99.90
11549;DHT22;61444;59.472;18.306;2023-07-13T21:54:37;16.20;99.90
11549;DHT22;61444;59.472;18.306;2023-07-13T21:56:46;16.20;99.90
11549;DHT22;61444;59.472;18.306;2023-07-13T21:58:55;16.20;99.90
11549;DHT22;61444;59.472;18.306;2023-07-13T22:01:12;16.20;99.90
11549;DHT22;61444;59.472;18.306;2023-07-13T22:03:25;16.10;99.90
11549;DHT22;61444;59.472;18.306;2023-07-13T22:05:33;16.10;99.90
11549;DHT22;61444;59.472;18.306;2023-07-13T22:07:43;16.10;99.90
11549;DHT22;61444;59.472;18.306;2023-07-13T22:09:50;16.10;99.90
11549;DHT22;61444;59.472;18.306;2023-07-13T22:11:59;16.10;99.90
11549;DHT22;61444;59.472;18.306;2023-07-13T22:14:09;16.10;99.90
11549;DHT22;61444;59.472;18.306;2023-07-13T22:16:19;16.10;99.90
11549;DHT22;61444;59.472;18.306;2023-07-13T22:18:31;16.00;99.90
11549;DHT22;61444;59.472;18.306;2023-07-13T22:20:48;16.00;99.90
11549;DHT22;61444;59.472;18.306;2023-07-13T22:22:57;16.00;99.90
11549;DHT22;61444;59.472;18.306;2023-07-13T22:25:08;16.00;99.90
11549;DHT22;61444;59.472;18.306;2023-07-13T22:27:17;16.10;99.90
11549;DHT22;61444;59.472;18.306;2023-07-13T22:29:28;16.00;99.90
11549;DHT22;61444;59.472;18.306;2023-07-13T22:31:38;15.90;99.90
11549;DHT22;61444;59.472;18.306;2023-07-13T22:33:49;16.00;99.90
11549;DHT22;61444;59.472;18.306;2023-07-13T22:35:58;15.90;99.90
11549;DHT22;61444;59.472;18.306;2023-07-13T22:38:20;16.00;99.90
11549;DHT22;61444;59.472;18.306;2023-07-13T22:40:29;16.00;99.90
11549;DHT22;61444;59.472;18.306;2023-07-13T22:42:38;16.00;99.90
11549;DHT22;61444;59.472;18.306;2023-07-13T22:44:47;16.00;99.90
11549;DHT22;61444;59.472;18.306;2023-07-13T22:46:56;16.00;99.90
11549;DHT22;61444;59.472;18.306;2023-07-13T22:49:18;16.00;99.90
11549;DHT22;61444;59.472;18.306;2023-07-13T22:51:27;15.90;99.90
11549;DHT22;61444;59.472;18.306;2023-07-13T22:53:36;15.90;99.90
11549;DHT22;61444;59.472;18.306;2023-07-13T22:55:44;15.90;99.90
11549;DHT22;61444;59.472;18.306;2023-07-13T22:58:03;16.00;99.90
11549;DHT22;61444;59.472;18.306;2023-07-13T23:00:17;15.90;99.90
11549;DHT22;61444;59.472;18.306;2023-07-13T23:02:26;15.90;99.90
11549;DHT22;61444;59.472;18.306;2023-07-13T23:04:40;15.90;99.90
11549;DHT22;61444;59.472;18.306;2023-07-13T23:06:48;15.90;99.90
11549;DHT22;61444;59.472;18.306;2023-07-13T23:08:59;15.90;99.90
11549;DHT22;61444;59.472;18.306;2023-07-13T23:11:09;15.90;99.90
11549;DHT22;61444;59.472;18.306;2023-07-13T23:13:22;15.80;99.90
11549;DHT22;61444;59.472;18.306;2023-07-13T23:15:30;15.80;99.90
11549;DHT22;61444;59.472;18.306;2023-07-13T23:17:43;15.80;99.90
11549;DHT22;61444;59.472;18.306;2023-07-13T23:19:54;15.70;99.90
11549;DHT22;61444;59.472;18.306;2023-07-13T23:22:18;15.70;99.90
11549;DHT22;61444;59.472;18.306;2023-07-13T23:24:31;15.70;99.90
11549;DHT22;61444;59.472;18.306;2023-07-13T23:26:40;15.60;99.90
11549;DHT22;61444;59.472;18.306;2023-07-13T23:28:50;15.60;99.90
11549;DHT22;61444;59.472;18.306;2023-07-13T23:30:59;15.60;99.90
11549;DHT22;61444;59.472;18.306;2023-07-13T23:33:15;15.50;99.90
11549;DHT22;61444;59.472;18.306;2023-07-13T23:35:27;15.50;99.90
11549;DHT22;61444;59.472;18.306;2023-07-13T23:37:36;15.50;99.90
11549;DHT22;61444;59.472;18.306;2023-07-13T23:39:48;15.50;99.90
11549;DHT22;61444;59.472;18.306;2023-07-13T23:41:57;15.40;99.90
11549;DHT22;61444;59.472;18.306;2023-07-13T23:44:09;15.40;99.90
11549;DHT22;61444;59.472;18.306;2023-07-13T23:46:24;15.40;99.90
11549;DHT22;61444;59.472;18.306;2023-07-13T23:48:33;15.30;99.90
11549;DHT22;61444;59.472;18.306;2023-07-13T23:50:44;15.30;99.90
11549;DHT22;61444;59.472;18.306;2023-07-13T23:52:53;15.40;99.90
11549;DHT22;61444;59.472;18.306;2023-07-13T23:55:10;15.40;99.90
11549;DHT22;61444;59.472;18.306;2023-07-13T23:57:18;15.30;99.90
11549;DHT22;61444;59.472;18.306;2023-07-13T23:59:27;15.30;99.90
